createdAt,value
2017-04-16T00:00:19.014Z,4.69
2017-04-16T00:01:19.003Z,4.7
2017-04-16T00:02:18.689Z,4.77
2017-04-16T00:03:18.982Z,4.78
2017-04-16T00:04:18.978Z,4.85
2017-04-16T00:05:18.955Z,4.82
2017-04-16T00:06:18.945Z,4.82
2017-04-16T00:07:18.931Z,4.75
2017-04-16T00:08:18.919Z,4.82
2017-04-16T00:09:18.606Z,4.88
2017-04-16T00:10:18.895Z,4.73
2017-04-16T00:11:18.886Z,4.82
2017-04-16T00:12:18.870Z,4.84
2017-04-16T00:13:18.863Z,4.8
2017-04-16T00:14:18.850Z,4.86
2017-04-16T00:15:18.836Z,4.73
2017-04-16T00:16:18.825Z,4.78
2017-04-16T00:17:18.813Z,4.78
2017-04-16T00:18:18.799Z,4.84
2017-04-16T00:19:19.044Z,4.77
2017-04-16T00:20:18.777Z,4.75
2017-04-16T00:21:18.762Z,4.86
2017-04-16T00:22:18.774Z,4.89
2017-04-16T00:23:18.743Z,4.78
2017-04-16T00:24:18.730Z,4.82
2017-04-16T00:25:18.718Z,4.8
2017-04-16T00:26:18.704Z,4.86
2017-04-16T00:27:18.694Z,4.8
2017-04-16T00:28:18.683Z,4.82
2017-04-16T00:29:18.671Z,4.78
2017-04-16T00:30:18.656Z,4.67
2017-04-16T00:31:18.649Z,4.66
2017-04-16T00:32:18.632Z,4.7
2017-04-16T00:33:18.622Z,4.75
2017-04-16T00:34:18.612Z,4.7
2017-04-16T00:35:18.601Z,4.82
2017-04-16T00:36:18.587Z,4.67
2017-04-16T00:37:18.574Z,4.69
2017-04-16T00:38:18.561Z,4.59
2017-04-16T00:39:18.552Z,4.62
2017-04-16T00:40:18.232Z,4.58
2017-04-16T00:41:18.523Z,4.73
2017-04-16T00:42:18.516Z,4.67
2017-04-16T00:43:18.500Z,4.7
2017-04-16T00:44:18.489Z,4.72
2017-04-16T00:45:18.475Z,4.66
2017-04-16T00:46:18.472Z,4.73
2017-04-16T00:47:18.455Z,4.62
2017-04-16T00:48:18.440Z,4.65
2017-04-16T00:49:18.430Z,4.6
2017-04-16T00:50:18.416Z,4.67
2017-04-16T00:51:18.099Z,4.55
2017-04-16T00:52:18.393Z,4.67
2017-04-16T00:53:18.381Z,4.7
2017-04-16T00:54:18.368Z,4.62
2017-04-16T00:55:18.356Z,4.63
2017-04-16T00:56:18.341Z,4.6
2017-04-16T00:57:18.330Z,4.66
2017-04-16T00:58:18.328Z,4.58
2017-04-16T00:59:18.308Z,4.58
2017-04-16T01:00:18.296Z,4.58
2017-04-16T01:01:17.980Z,4.55
2017-04-16T01:02:18.276Z,4.54
2017-04-16T01:03:18.259Z,4.51
2017-04-16T01:04:18.245Z,4.48
2017-04-16T01:05:18.235Z,4.47
2017-04-16T01:06:18.220Z,4.58
2017-04-16T01:07:17.904Z,4.47
2017-04-16T01:08:18.207Z,4.48
2017-04-16T01:09:18.186Z,4.45
2017-04-16T01:10:18.173Z,4.45
2017-04-16T01:11:18.169Z,4.47
2017-04-16T01:12:17.847Z,4.36
2017-04-16T01:13:18.438Z,4.37
2017-04-16T01:14:18.124Z,4.41
2017-04-16T01:15:18.111Z,4.42
2017-04-16T01:16:18.100Z,4.36
2017-04-16T01:17:18.091Z,4.37
2017-04-16T01:18:18.074Z,4.32
2017-04-16T01:19:18.066Z,4.41
2017-04-16T01:20:18.049Z,4.29
2017-04-16T01:21:18.038Z,4.29
2017-04-16T01:22:17.722Z,4.26
2017-04-16T01:23:18.016Z,4.23
2017-04-16T01:24:18.005Z,4.27
2017-04-16T01:25:17.989Z,4.27
2017-04-16T01:26:17.980Z,4.26
2017-04-16T01:27:17.662Z,4.3
2017-04-16T01:28:17.954Z,4.26
2017-04-16T01:29:17.942Z,4.23
2017-04-16T01:30:17.931Z,4.26
2017-04-16T01:31:17.918Z,4.27
2017-04-16T01:32:17.903Z,4.27
2017-04-16T01:33:17.917Z,4.23
2017-04-16T01:34:17.879Z,4.15
2017-04-16T01:35:17.866Z,4.16
2017-04-16T01:36:17.855Z,4.18
2017-04-16T01:37:17.842Z,4.24
2017-04-16T01:38:17.833Z,4.15
2017-04-16T01:39:17.821Z,4.15
2017-04-16T01:40:17.806Z,4.18
2017-04-16T01:41:18.013Z,4.27
2017-04-16T01:42:17.781Z,4.15
2017-04-16T01:43:17.768Z,4.16
2017-04-16T01:44:17.756Z,4.23
2017-04-16T01:45:17.741Z,4.16
2017-04-16T01:46:17.732Z,4.24
2017-04-16T01:47:17.723Z,4.23
2017-04-16T01:48:17.707Z,4.29
2017-04-16T01:49:17.696Z,4.23
2017-04-16T01:50:17.683Z,4.23
2017-04-16T01:51:17.673Z,4.26
2017-04-16T01:52:17.659Z,4.2
2017-04-16T01:53:17.650Z,4.29
2017-04-16T01:54:17.638Z,4.18
2017-04-16T01:55:17.622Z,4.16
2017-04-16T01:56:17.605Z,4.12
2017-04-16T01:57:17.594Z,4.16
2017-04-16T01:58:17.585Z,4.22
2017-04-16T01:59:17.587Z,4.26
2017-04-16T02:00:17.558Z,4.27
2017-04-16T02:01:17.545Z,4.22
2017-04-16T02:02:17.537Z,4.26
2017-04-16T02:03:17.528Z,4.26
2017-04-16T02:04:17.208Z,4.36
2017-04-16T02:05:17.495Z,4.34
2017-04-16T02:06:17.483Z,4.32
2017-04-16T02:07:17.473Z,4.37
2017-04-16T02:08:17.464Z,4.41
2017-04-16T02:09:17.158Z,4.36
2017-04-16T02:10:17.435Z,4.36
2017-04-16T02:11:17.422Z,4.4
2017-04-16T02:12:17.410Z,4.5
2017-04-16T02:13:17.400Z,4.45
2017-04-16T02:14:17.384Z,4.5
2017-04-16T02:15:17.373Z,4.51
2017-04-16T02:16:17.360Z,4.51
2017-04-16T02:17:17.350Z,4.51
2017-04-16T02:18:17.335Z,4.51
2017-04-16T02:19:17.323Z,4.52
2017-04-16T02:20:17.310Z,4.5
2017-04-16T02:21:17.336Z,4.52
2017-04-16T02:22:17.289Z,4.55
2017-04-16T02:23:17.276Z,4.55
2017-04-16T02:24:17.266Z,4.5
2017-04-16T02:25:17.250Z,4.59
2017-04-16T02:26:17.243Z,4.62
2017-04-16T02:27:17.226Z,4.55
2017-04-16T02:28:17.219Z,4.45
2017-04-16T02:29:17.204Z,4.52
2017-04-16T02:30:17.210Z,4.47
2017-04-16T02:31:17.175Z,4.5
2017-04-16T02:32:17.168Z,4.5
2017-04-16T02:33:16.850Z,4.4
2017-04-16T02:34:17.144Z,4.36
2017-04-16T02:35:17.128Z,4.45
2017-04-16T02:36:17.116Z,4.42
2017-04-16T02:37:17.102Z,4.4
2017-04-16T02:38:17.093Z,4.4
2017-04-16T02:39:17.080Z,4.4
2017-04-16T02:40:17.066Z,4.33
2017-04-16T02:41:17.052Z,4.34
2017-04-16T02:42:17.095Z,4.33
2017-04-16T02:43:17.031Z,4.32
2017-04-16T02:44:17.021Z,4.3
2017-04-16T02:45:17.005Z,4.26
2017-04-16T02:46:17.002Z,4.24
2017-04-16T02:47:17.325Z,4.27
2017-04-16T02:48:16.971Z,4.24
2017-04-16T02:49:16.963Z,4.37
2017-04-16T02:50:16.945Z,4.32
2017-04-16T02:51:16.629Z,4.29
2017-04-16T02:52:16.917Z,4.33
2017-04-16T02:53:16.907Z,4.32
2017-04-16T02:54:16.893Z,4.34
2017-04-16T02:55:16.883Z,4.26
2017-04-16T02:56:16.867Z,4.29
2017-04-16T02:57:16.856Z,4.3
2017-04-16T02:58:16.851Z,4.22
2017-04-16T02:59:16.833Z,4.26
2017-04-16T03:00:16.821Z,4.24
2017-04-16T03:01:16.808Z,4.26
2017-04-16T03:02:16.846Z,4.23
2017-04-16T03:03:16.781Z,4.3
2017-04-16T03:04:16.770Z,4.22
2017-04-16T03:05:16.757Z,4.23
2017-04-16T03:06:16.745Z,4.24
2017-04-16T03:07:16.732Z,4.2
2017-04-16T03:08:16.721Z,4.26
2017-04-16T03:09:16.707Z,4.27
2017-04-16T03:10:16.696Z,4.29
2017-04-16T03:11:16.682Z,4.29
2017-04-16T03:12:16.677Z,4.22
2017-04-16T03:13:16.357Z,4.26
2017-04-16T03:14:16.654Z,4.33
2017-04-16T03:15:16.331Z,4.32
2017-04-16T03:16:16.622Z,4.3
2017-04-16T03:17:16.610Z,4.36
2017-04-16T03:18:16.600Z,4.36
2017-04-16T03:19:16.616Z,4.42
2017-04-16T03:20:16.273Z,4.41
2017-04-16T03:21:16.559Z,4.4
2017-04-16T03:22:16.552Z,4.41
2017-04-16T03:23:16.536Z,4.41
2017-04-16T03:24:16.523Z,4.36
2017-04-16T03:25:16.510Z,4.48
2017-04-16T03:26:16.500Z,4.45
2017-04-16T03:27:16.519Z,4.5
2017-04-16T03:28:16.473Z,4.34
2017-04-16T03:29:16.467Z,4.5
2017-04-16T03:30:16.448Z,4.42
2017-04-16T03:31:16.437Z,4.37
2017-04-16T03:32:16.423Z,4.42
2017-04-16T03:33:16.113Z,4.34
2017-04-16T03:34:16.407Z,4.37
2017-04-16T03:35:16.388Z,4.4
2017-04-16T03:36:16.376Z,4.4
2017-04-16T03:37:16.372Z,4.41
2017-04-16T03:38:16.351Z,4.42
2017-04-16T03:39:16.339Z,4.33
2017-04-16T03:40:16.325Z,4.5
2017-04-16T03:41:16.315Z,4.52
2017-04-16T03:42:16.301Z,4.54
2017-04-16T03:43:16.290Z,4.58
2017-04-16T03:44:16.282Z,4.66
2017-04-16T03:45:16.263Z,4.66
2017-04-16T03:46:16.258Z,4.67
2017-04-16T03:47:15.936Z,4.69
2017-04-16T03:48:15.926Z,4.67
2017-04-16T03:49:16.217Z,4.72
2017-04-16T03:50:16.206Z,4.78
2017-04-16T03:51:16.192Z,4.78
2017-04-16T03:52:16.178Z,4.92
2017-04-16T03:53:16.172Z,4.97
2017-04-16T03:54:16.261Z,5
2017-04-16T03:55:16.145Z,5.02
2017-04-16T03:56:16.131Z,5.1
2017-04-16T03:57:16.119Z,5.13
2017-04-16T03:58:16.107Z,5.17
2017-04-16T03:59:16.096Z,5.21
2017-04-16T04:00:16.082Z,5.25
2017-04-16T04:01:16.072Z,5.31
2017-04-16T04:02:16.058Z,5.33
2017-04-16T04:03:16.136Z,5.42
2017-04-16T04:04:16.045Z,5.45
2017-04-16T04:05:16.022Z,5.54
2017-04-16T04:06:16.009Z,5.43
2017-04-16T04:07:15.722Z,5.43
2017-04-16T04:08:15.986Z,5.45
2017-04-16T04:09:15.978Z,5.58
2017-04-16T04:10:15.965Z,5.58
2017-04-16T04:11:15.952Z,5.56
2017-04-16T04:12:15.939Z,5.64
2017-04-16T04:13:15.927Z,5.63
2017-04-16T04:14:15.916Z,5.57
2017-04-16T04:15:15.904Z,5.58
2017-04-16T04:16:15.892Z,5.71
2017-04-16T04:17:15.885Z,5.71
2017-04-16T04:18:15.567Z,5.75
2017-04-16T04:19:15.864Z,5.78
2017-04-16T04:20:15.848Z,5.81
2017-04-16T04:21:15.833Z,5.82
2017-04-16T04:22:15.826Z,5.89
2017-04-16T04:23:15.815Z,5.86
2017-04-16T04:24:15.803Z,5.89
2017-04-16T04:25:15.788Z,5.93
2017-04-16T04:26:15.777Z,5.97
2017-04-16T04:27:15.763Z,6.03
2017-04-16T04:28:15.755Z,6.06
2017-04-16T04:29:15.749Z,5.97
2017-04-16T04:30:15.732Z,6.03
2017-04-16T04:31:15.717Z,6.04
2017-04-16T04:32:15.710Z,6.03
2017-04-16T04:33:15.698Z,5.97
2017-04-16T04:34:15.688Z,5.96
2017-04-16T04:35:15.674Z,6.04
2017-04-16T04:36:15.662Z,6.06
2017-04-16T04:37:15.348Z,6.12
2017-04-16T04:38:15.642Z,6.06
2017-04-16T04:39:15.629Z,6.09
2017-04-16T04:40:15.616Z,6.04
2017-04-16T04:41:15.607Z,6.11
2017-04-16T04:42:15.597Z,6.25
2017-04-16T04:43:15.585Z,6.25
2017-04-16T04:44:15.573Z,6.21
2017-04-16T04:45:15.560Z,6.37
2017-04-16T04:46:15.551Z,6.55
2017-04-16T04:47:15.542Z,6.58
2017-04-16T04:48:15.532Z,6.58
2017-04-16T04:49:15.518Z,6.7
2017-04-16T04:50:15.202Z,6.67
2017-04-16T04:51:15.497Z,6.76
2017-04-16T04:52:15.486Z,6.87
2017-04-16T04:53:15.476Z,6.84
2017-04-16T04:54:15.464Z,6.84
2017-04-16T04:55:15.454Z,6.81
2017-04-16T04:56:15.443Z,6.98
2017-04-16T04:57:15.428Z,6.95
2017-04-16T04:58:15.121Z,7.06
2017-04-16T04:59:15.415Z,7.1
2017-04-16T05:00:15.399Z,7.07
2017-04-16T05:01:15.092Z,7.09
2017-04-16T05:02:15.082Z,7.16
2017-04-16T05:03:15.369Z,7.2
2017-04-16T05:04:15.358Z,7.13
2017-04-16T05:05:15.043Z,7.13
2017-04-16T05:06:15.335Z,7.17
2017-04-16T05:07:15.323Z,7.24
2017-04-16T05:08:15.315Z,7.28
2017-04-16T05:09:15.304Z,7.25
2017-04-16T05:10:15.291Z,7.28
2017-04-16T05:11:15.287Z,7.34
2017-04-16T05:12:15.272Z,7.42
2017-04-16T05:13:15.263Z,7.46
2017-04-16T05:14:14.957Z,7.48
2017-04-16T05:15:15.240Z,7.52
2017-04-16T05:16:15.235Z,7.61
2017-04-16T05:17:15.223Z,7.58
2017-04-16T05:18:14.909Z,7.69
2017-04-16T05:19:15.200Z,7.82
2017-04-16T05:20:15.189Z,7.75
2017-04-16T05:21:15.182Z,7.8
2017-04-16T05:22:15.168Z,7.83
2017-04-16T05:23:15.160Z,7.83
2017-04-16T05:24:15.155Z,7.98
2017-04-16T05:25:15.141Z,7.97
2017-04-16T05:26:14.826Z,8.1
2017-04-16T05:27:15.117Z,8.01
2017-04-16T05:28:15.113Z,8.04
2017-04-16T05:29:15.097Z,8.15
2017-04-16T05:30:15.184Z,8.18
2017-04-16T05:31:15.083Z,8.12
2017-04-16T05:32:15.070Z,8.18
2017-04-16T05:33:15.056Z,8.15
2017-04-16T05:34:15.054Z,8.15
2017-04-16T05:35:15.044Z,8.15
2017-04-16T05:36:15.028Z,8.02
2017-04-16T05:37:15.023Z,8.12
2017-04-16T05:38:15.008Z,8.04
2017-04-16T05:39:15.003Z,8.02
2017-04-16T05:40:14.989Z,8.08
2017-04-16T05:41:14.983Z,8.02
2017-04-16T05:42:14.969Z,8.05
2017-04-16T05:43:14.959Z,8.04
2017-04-16T05:44:14.958Z,7.98
2017-04-16T05:45:14.942Z,8.15
2017-04-16T05:46:14.934Z,8.2
2017-04-16T05:47:14.982Z,8.15
2017-04-16T05:48:14.911Z,8.15
2017-04-16T05:49:14.907Z,8.11
2017-04-16T05:50:14.893Z,8.25
2017-04-16T05:51:14.891Z,8.29
2017-04-16T05:52:14.870Z,8.34
2017-04-16T05:53:14.559Z,8.33
2017-04-16T05:54:14.855Z,8.38
2017-04-16T05:55:14.539Z,8.36
2017-04-16T05:56:14.835Z,8.29
2017-04-16T05:57:14.827Z,8.36
2017-04-16T05:58:14.817Z,8.3
2017-04-16T05:59:14.807Z,8.34
2017-04-16T06:00:14.795Z,8.44
2017-04-16T06:01:14.784Z,8.48
2017-04-16T06:02:14.774Z,8.48
2017-04-16T06:03:14.768Z,8.43
2017-04-16T06:04:14.459Z,8.48
2017-04-16T06:05:14.748Z,8.52
2017-04-16T06:06:14.734Z,8.59
2017-04-16T06:07:14.725Z,8.63
2017-04-16T06:08:14.719Z,8.68
2017-04-16T06:09:14.710Z,8.77
2017-04-16T06:10:14.697Z,8.79
2017-04-16T06:11:14.692Z,8.77
2017-04-16T06:12:14.680Z,8.76
2017-04-16T06:13:14.676Z,8.77
2017-04-16T06:14:14.357Z,8.77
2017-04-16T06:15:14.652Z,8.74
2017-04-16T06:16:14.644Z,8.8
2017-04-16T06:17:14.632Z,8.87
2017-04-16T06:18:14.326Z,8.81
2017-04-16T06:19:14.614Z,8.83
2017-04-16T06:20:14.301Z,8.92
2017-04-16T06:21:46.397Z,9.02
2017-04-16T06:22:14.587Z,9.08
2017-04-16T06:23:14.580Z,9.11
2017-04-16T06:24:14.270Z,9.18
2017-04-16T06:25:14.561Z,9.05
2017-04-16T06:26:14.553Z,9.08
2017-04-16T06:27:14.543Z,9.04
2017-04-16T06:28:14.532Z,9.04
2017-04-16T06:29:14.594Z,9.02
2017-04-16T06:30:14.513Z,9.1
2017-04-16T06:31:14.505Z,9.17
2017-04-16T06:32:14.498Z,9.23
2017-04-16T06:33:14.489Z,9.18
2017-04-16T06:34:14.481Z,9.17
2017-04-16T06:35:14.473Z,9.2
2017-04-16T06:36:14.463Z,9.24
2017-04-16T06:37:14.452Z,9.26
2017-04-16T06:38:14.451Z,9.23
2017-04-16T06:39:14.437Z,9.26
2017-04-16T06:40:14.123Z,9.32
2017-04-16T06:41:14.418Z,9.33
2017-04-16T06:42:14.408Z,9.5
2017-04-16T06:43:14.401Z,9.58
2017-04-16T06:44:14.393Z,9.68
2017-04-16T06:45:14.732Z,9.78
2017-04-16T06:46:14.370Z,9.89
2017-04-16T06:47:14.363Z,9.99
2017-04-16T06:48:14.357Z,10.01
2017-04-16T06:49:14.349Z,10.11
2017-04-16T06:50:14.347Z,10.07
2017-04-16T06:51:14.028Z,10.07
2017-04-16T06:52:14.323Z,10.2
2017-04-16T06:53:14.314Z,10.18
2017-04-16T06:54:14.305Z,10.2
2017-04-16T06:55:14.299Z,10.22
2017-04-16T06:56:14.290Z,10.23
2017-04-16T06:57:14.281Z,10.2
2017-04-16T06:58:14.275Z,10.15
2017-04-16T06:59:14.269Z,10.18
2017-04-16T07:00:14.258Z,10.11
2017-04-16T07:01:14.249Z,10.05
2017-04-16T07:02:14.246Z,10.08
2017-04-16T07:03:13.931Z,10.23
2017-04-16T07:04:14.259Z,10.22
2017-04-16T07:05:14.222Z,10.17
2017-04-16T07:06:14.212Z,10.2
2017-04-16T07:07:14.201Z,10.23
2017-04-16T07:08:14.197Z,10.33
2017-04-16T07:09:14.186Z,10.52
2017-04-16T07:10:14.186Z,10.71
2017-04-16T07:11:14.173Z,11.06
2017-04-16T07:12:14.167Z,11.25
2017-04-16T07:13:14.159Z,11.54
2017-04-16T07:14:14.155Z,11.86
2017-04-16T07:15:14.145Z,12.01
2017-04-16T07:16:14.144Z,11.99
2017-04-16T07:17:14.132Z,11.95
2017-04-16T07:18:13.887Z,11.8
2017-04-16T07:19:14.122Z,11.51
2017-04-16T07:20:14.113Z,11.25
2017-04-16T07:21:14.110Z,11.15
2017-04-16T07:22:14.103Z,11
2017-04-16T07:23:14.097Z,10.78
2017-04-16T07:24:14.093Z,10.55
2017-04-16T07:25:14.084Z,10.48
2017-04-16T07:26:13.773Z,10.27
2017-04-16T07:27:13.765Z,10.23
2017-04-16T07:28:13.769Z,10.09
2017-04-16T07:29:14.066Z,10.12
2017-04-16T07:30:14.053Z,10.26
2017-04-16T07:31:14.045Z,10.33
2017-04-16T07:32:14.039Z,10.51
2017-04-16T07:33:14.030Z,10.73
2017-04-16T07:34:14.023Z,11.07
2017-04-16T07:35:14.084Z,11.33
2017-04-16T07:36:14.048Z,11.67
2017-04-16T07:37:14.008Z,11.88
2017-04-16T07:38:13.702Z,12.17
2017-04-16T07:39:14.001Z,12.49
2017-04-16T07:40:13.992Z,12.74
2017-04-16T07:41:13.991Z,13.08
2017-04-16T07:42:13.984Z,13.48
2017-04-16T07:43:14.046Z,13.91
2017-04-16T07:44:13.678Z,14.32
2017-04-16T07:45:13.976Z,14.5
2017-04-16T07:46:13.977Z,14.58
2017-04-16T07:47:13.973Z,14.68
2017-04-16T07:48:13.974Z,14.77
2017-04-16T07:49:13.973Z,14.8
2017-04-16T07:50:13.971Z,14.91
2017-04-16T07:51:13.665Z,14.78
2017-04-16T07:52:13.660Z,14.58
2017-04-16T07:53:13.964Z,14.54
2017-04-16T07:54:13.967Z,14.28
2017-04-16T07:55:13.957Z,14.18
2017-04-16T07:56:13.958Z,14.04
2017-04-16T07:57:13.956Z,14.02
2017-04-16T07:58:13.954Z,13.78
2017-04-16T07:59:13.948Z,13.52
2017-04-16T08:00:14.049Z,13.2
2017-04-16T08:01:13.940Z,12.95
2017-04-16T08:02:13.637Z,12.71
2017-04-16T08:03:13.943Z,12.56
2017-04-16T08:04:13.931Z,12.5
2017-04-16T08:05:13.927Z,12.46
2017-04-16T08:06:13.925Z,12.45
2017-04-16T08:07:13.917Z,12.46
2017-04-16T08:08:13.919Z,12.42
2017-04-16T08:09:13.912Z,12.46
2017-04-16T08:10:13.907Z,12.49
2017-04-16T08:11:13.902Z,12.41
2017-04-16T08:12:13.920Z,12.28
2017-04-16T08:13:13.898Z,12.19
2017-04-16T08:14:13.895Z,12.05
2017-04-16T08:15:13.583Z,11.88
2017-04-16T08:16:13.879Z,11.72
2017-04-16T08:17:13.873Z,11.35
2017-04-16T08:18:13.868Z,11.27
2017-04-16T08:19:13.862Z,11.03
2017-04-16T08:20:13.861Z,10.78
2017-04-16T08:21:13.848Z,10.41
2017-04-16T08:22:13.842Z,10.42
2017-04-16T08:23:13.840Z,10.18
2017-04-16T08:25:13.856Z,10.08
2017-04-16T08:26:13.823Z,10.09
2017-04-16T08:27:13.814Z,10.25
2017-04-16T08:28:13.507Z,10.32
2017-04-16T08:29:13.800Z,10.48
2017-04-16T08:30:13.795Z,10.44
2017-04-16T08:31:13.789Z,10.36
2017-04-16T08:32:13.784Z,10.23
2017-04-16T08:33:14.075Z,10.05
2017-04-16T08:34:13.769Z,9.96
2017-04-16T08:35:13.770Z,10.01
2017-04-16T08:36:13.755Z,10.22
2017-04-16T08:37:13.751Z,10.29
2017-04-16T08:38:13.744Z,10.47
2017-04-16T08:39:13.735Z,10.48
2017-04-16T08:40:13.731Z,10.44
2017-04-16T08:41:13.728Z,10.44
2017-04-16T08:42:13.412Z,10.6
2017-04-16T08:43:13.707Z,10.6
2017-04-16T08:44:13.701Z,10.7
2017-04-16T08:45:13.697Z,10.68
2017-04-16T08:46:13.688Z,10.66
2017-04-16T08:47:13.685Z,10.61
2017-04-16T08:48:13.677Z,10.48
2017-04-16T08:49:13.669Z,10.44
2017-04-16T08:50:13.665Z,10.4
2017-04-16T08:51:13.654Z,10.41
2017-04-16T08:52:13.348Z,10.47
2017-04-16T08:53:13.646Z,10.34
2017-04-16T08:54:13.636Z,10.32
2017-04-16T08:55:13.630Z,10.3
2017-04-16T08:56:13.624Z,10.36
2017-04-16T08:57:13.618Z,10.44
2017-04-16T08:58:13.305Z,10.55
2017-04-16T08:59:13.605Z,10.76
2017-04-16T09:00:13.594Z,10.99
2017-04-16T09:01:13.587Z,11.35
2017-04-16T09:02:13.278Z,11.47
2017-04-16T09:03:13.577Z,11.73
2017-04-16T09:04:13.566Z,11.85
2017-04-16T09:05:13.562Z,12.09
2017-04-16T09:06:13.553Z,12.14
2017-04-16T09:07:13.548Z,12.19
2017-04-16T09:08:13.549Z,12.21
2017-04-16T09:09:13.534Z,12.45
2017-04-16T09:10:13.529Z,12.57
2017-04-16T09:11:13.524Z,12.65
2017-04-16T09:12:13.516Z,12.71
2017-04-16T09:13:13.513Z,12.74
2017-04-16T09:14:13.504Z,13
2017-04-16T09:15:13.200Z,13.12
2017-04-16T09:16:13.500Z,13.04
2017-04-16T09:17:13.489Z,13.15
2017-04-16T09:18:13.498Z,13.12
2017-04-16T09:19:13.481Z,13.19
2017-04-16T09:20:13.475Z,13.26
2017-04-16T09:21:13.472Z,13.28
2017-04-16T09:22:13.463Z,13.3
2017-04-16T09:23:13.459Z,13.36
2017-04-16T09:24:13.153Z,13.55
2017-04-16T09:25:13.448Z,13.67
2017-04-16T09:26:13.148Z,13.85
2017-04-16T09:27:13.439Z,13.92
2017-04-16T09:28:13.432Z,14.04
2017-04-16T09:29:13.439Z,14.09
2017-04-16T09:30:13.424Z,14.14
2017-04-16T09:31:13.418Z,14.1
2017-04-16T09:32:13.414Z,14.21
2017-04-16T09:33:13.455Z,14.17
2017-04-16T09:34:13.409Z,14.12
2017-04-16T09:35:13.409Z,14.09
2017-04-16T09:36:13.398Z,14.22
2017-04-16T09:37:13.401Z,14.22
2017-04-16T09:38:13.390Z,14.21
2017-04-16T09:39:13.386Z,14.24
2017-04-16T09:40:13.401Z,14.25
2017-04-16T09:41:13.380Z,14.32
2017-04-16T09:42:13.372Z,14.22
2017-04-16T09:43:13.376Z,14.27
2017-04-16T09:44:13.366Z,14.21
2017-04-16T09:45:13.358Z,14.17
2017-04-16T09:46:13.051Z,14.04
2017-04-16T09:47:13.362Z,14.07
2017-04-16T09:48:13.347Z,13.99
2017-04-16T09:49:13.341Z,13.88
2017-04-16T09:50:13.407Z,13.85
2017-04-16T09:51:13.332Z,13.73
2017-04-16T09:52:13.329Z,13.66
2017-04-16T09:53:13.018Z,13.55
2017-04-16T09:54:13.321Z,13.25
2017-04-16T09:55:13.312Z,13.03
2017-04-16T09:56:13.306Z,12.75
2017-04-16T09:57:13.305Z,12.5
2017-04-16T09:58:13.301Z,12.12
2017-04-16T09:59:13.293Z,11.79
2017-04-16T10:00:13.310Z,11.46
2017-04-16T10:01:13.282Z,11.32
2017-04-16T10:02:12.671Z,11.14
2017-04-16T10:03:13.269Z,11.07
2017-04-16T10:04:12.961Z,10.99
2017-04-16T10:05:13.255Z,10.94
2017-04-16T10:06:12.944Z,10.76
2017-04-16T10:07:13.244Z,10.81
2017-04-16T10:08:12.935Z,10.71
2017-04-16T10:09:13.230Z,10.66
2017-04-16T10:10:13.228Z,10.63
2017-04-16T10:11:13.216Z,10.55
2017-04-16T10:12:13.211Z,10.55
2017-04-16T10:13:12.901Z,10.67
2017-04-16T10:14:13.196Z,10.76
2017-04-16T10:15:12.943Z,10.79
2017-04-16T10:16:13.183Z,10.82
2017-04-16T10:17:12.873Z,10.99
2017-04-16T10:18:12.866Z,11.04
2017-04-16T10:19:13.162Z,11.1
2017-04-16T10:20:13.163Z,11.24
2017-04-16T10:21:13.157Z,11.25
2017-04-16T10:22:13.142Z,11.28
2017-04-16T10:23:13.139Z,11.35
2017-04-16T10:24:13.143Z,11.49
2017-04-16T10:25:13.122Z,11.35
2017-04-16T10:26:13.120Z,11.4
2017-04-16T10:27:13.111Z,11.29
2017-04-16T10:28:13.106Z,11.28
2017-04-16T10:29:13.099Z,11.33
2017-04-16T10:30:13.094Z,11.39
2017-04-16T10:31:13.084Z,11.18
2017-04-16T10:32:12.777Z,11.27
2017-04-16T10:33:12.768Z,11.29
2017-04-16T10:34:13.089Z,11.32
2017-04-16T10:35:13.059Z,11.24
2017-04-16T10:36:13.053Z,11.27
2017-04-16T10:37:13.045Z,11.4
2017-04-16T10:38:13.041Z,11.42
2017-04-16T10:39:13.033Z,11.49
2017-04-16T10:40:13.026Z,11.54
2017-04-16T10:41:13.182Z,11.72
2017-04-16T10:42:12.711Z,11.78
2017-04-16T10:43:13.009Z,12.1
2017-04-16T10:44:13.007Z,12.21
2017-04-16T10:45:12.694Z,12.39
2017-04-16T10:46:12.985Z,12.45
2017-04-16T10:47:12.990Z,12.54
2017-04-16T10:48:12.976Z,12.7
2017-04-16T10:49:12.969Z,12.83
2017-04-16T10:50:12.964Z,13.05
2017-04-16T10:51:13.066Z,13.2
2017-04-16T10:52:12.954Z,13.41
2017-04-16T10:53:12.944Z,13.55
2017-04-16T10:54:12.636Z,13.69
2017-04-16T10:55:12.935Z,13.88
2017-04-16T10:56:12.926Z,14.17
2017-04-16T10:57:12.924Z,14.24
2017-04-16T10:58:12.616Z,14.58
2017-04-16T10:59:12.913Z,14.73
2017-04-16T11:00:12.907Z,14.84
2017-04-16T11:01:12.903Z,15.03
2017-04-16T11:02:12.898Z,15.14
2017-04-16T11:03:12.893Z,15.27
2017-04-16T11:04:12.890Z,15.23
2017-04-16T11:05:12.885Z,15.21
2017-04-16T11:06:12.883Z,15.25
2017-04-16T11:07:12.874Z,15.27
2017-04-16T11:08:12.875Z,15.34
2017-04-16T11:09:12.565Z,15.34
2017-04-16T11:10:12.560Z,15.36
2017-04-16T11:11:12.857Z,15.38
2017-04-16T11:12:12.854Z,15.36
2017-04-16T11:13:12.550Z,15.35
2017-04-16T11:14:12.849Z,15.34
2017-04-16T11:15:12.845Z,15.51
2017-04-16T11:16:12.865Z,15.49
2017-04-16T11:17:12.890Z,15.54
2017-04-16T11:18:12.834Z,15.59
2017-04-16T11:19:12.858Z,15.64
2017-04-16T11:20:12.824Z,15.57
2017-04-16T11:21:12.821Z,15.56
2017-04-16T11:22:12.817Z,15.39
2017-04-16T11:23:12.815Z,14.95
2017-04-16T11:24:12.812Z,14.4
2017-04-16T11:25:12.809Z,13.82
2017-04-16T11:26:13.055Z,13.26
2017-04-16T11:27:12.798Z,12.89
2017-04-16T11:28:12.799Z,12.21
2017-04-16T11:29:12.794Z,11.65
2017-04-16T11:30:12.790Z,11.19
2017-04-16T11:31:12.780Z,10.63
2017-04-16T11:32:12.781Z,10.26
2017-04-16T11:33:12.466Z,9.84
2017-04-16T11:34:12.768Z,9.43
2017-04-16T11:35:12.759Z,9.24
2017-04-16T11:36:12.759Z,8.98
2017-04-16T11:37:12.749Z,8.65
2017-04-16T11:38:12.744Z,8.34
2017-04-16T11:39:12.741Z,8
2017-04-16T11:40:12.731Z,7.86
2017-04-16T11:41:12.721Z,7.83
2017-04-16T11:42:12.714Z,7.82
2017-04-16T11:43:12.709Z,7.83
2017-04-16T11:44:12.707Z,7.83
2017-04-16T11:45:12.691Z,8.04
2017-04-16T11:46:12.685Z,8.11
2017-04-16T11:47:12.679Z,8.34
2017-04-16T11:48:12.675Z,8.43
2017-04-16T11:49:12.664Z,8.61
2017-04-16T11:50:12.348Z,8.71
2017-04-16T11:51:12.646Z,8.96
2017-04-16T11:52:12.650Z,9.18
2017-04-16T11:53:12.629Z,9.46
2017-04-16T11:54:12.624Z,9.47
2017-04-16T11:55:12.616Z,9.48
2017-04-16T11:56:12.610Z,9.66
2017-04-16T11:57:12.602Z,9.79
2017-04-16T11:58:12.295Z,9.94
2017-04-16T11:59:12.589Z,10.04
2017-04-16T12:00:12.680Z,10.09
2017-04-16T12:01:12.573Z,10.2
2017-04-16T12:02:12.568Z,10.32
2017-04-16T12:03:12.558Z,10.47
2017-04-16T12:04:12.553Z,10.52
2017-04-16T12:05:12.546Z,10.78
2017-04-16T12:06:12.233Z,10.92
2017-04-16T12:07:12.531Z,11.02
2017-04-16T12:08:12.221Z,11.15
2017-04-16T12:09:12.524Z,11.19
2017-04-16T12:10:12.212Z,11.39
2017-04-16T12:11:12.759Z,11.61
2017-04-16T12:12:12.498Z,11.78
2017-04-16T12:13:12.493Z,11.96
2017-04-16T12:14:12.487Z,11.98
2017-04-16T12:15:12.479Z,11.91
2017-04-16T12:16:12.171Z,11.9
2017-04-16T12:17:12.553Z,11.88
2017-04-16T12:18:12.507Z,11.85
2017-04-16T12:19:12.468Z,11.88
2017-04-16T12:20:12.451Z,11.98
2017-04-16T12:21:12.444Z,11.98
2017-04-16T12:22:12.437Z,12.02
2017-04-16T12:23:12.441Z,12.04
2017-04-16T12:24:12.426Z,11.86
2017-04-16T12:25:12.423Z,11.72
2017-04-16T12:26:12.415Z,11.58
2017-04-16T12:27:12.414Z,11.49
2017-04-16T12:28:12.412Z,11.58
2017-04-16T12:29:12.399Z,11.72
2017-04-16T12:30:12.392Z,11.75
2017-04-16T12:31:12.390Z,11.82
2017-04-16T12:32:12.386Z,11.7
2017-04-16T12:33:12.374Z,11.73
2017-04-16T12:34:12.371Z,11.85
2017-04-16T12:35:12.649Z,12.05
2017-04-16T12:36:12.360Z,12.21
2017-04-16T12:37:12.357Z,12.39
2017-04-16T12:38:12.349Z,12.54
2017-04-16T12:39:12.345Z,12.7
2017-04-16T12:40:12.034Z,12.77
2017-04-16T12:41:12.336Z,12.9
2017-04-16T12:42:12.335Z,12.85
2017-04-16T12:43:12.323Z,12.7
2017-04-16T12:44:12.013Z,12.45
2017-04-16T12:45:12.309Z,12.23
2017-04-16T12:46:12.310Z,12.01
2017-04-16T12:47:12.300Z,11.86
2017-04-16T12:48:12.295Z,11.72
2017-04-16T12:49:12.298Z,11.64
2017-04-16T12:50:12.286Z,11.4
2017-04-16T12:51:12.306Z,11.33
2017-04-16T12:52:11.819Z,11.14
2017-04-16T12:53:12.266Z,11.06
2017-04-16T12:54:12.266Z,10.89
2017-04-16T12:55:12.255Z,10.76
2017-04-16T12:56:11.949Z,10.71
2017-04-16T12:57:12.245Z,10.44
2017-04-16T12:58:12.242Z,10.29
2017-04-16T12:59:12.237Z,10.07
2017-04-16T13:00:12.229Z,9.79
2017-04-16T13:01:12.225Z,9.54
2017-04-16T13:02:12.212Z,9.23
2017-04-16T13:03:12.221Z,8.96
2017-04-16T13:04:11.923Z,8.61
2017-04-16T13:05:12.193Z,8.36
2017-04-16T13:06:12.189Z,8.16
2017-04-16T13:07:12.183Z,7.93
2017-04-16T13:08:11.871Z,7.71
2017-04-16T13:09:12.219Z,7.52
2017-04-16T13:10:11.856Z,7.53
2017-04-16T13:11:12.149Z,7.3